PWSweather.com
Personal Weather Stations
Station Observations
KNVELKO7
Elko, NV 89801

Elko, NV 89801

Lat: 40.963233, Lon: -115.592836

Elevation: 5230

Station Type: WS-2812

High Low Average
Temperature 94.0°F34.4°F 51.5°F10.8°F 73.5°F23.1°F
Dew Point 61.3°F16.3°F 46.4°F8.0°F 52.2°F11.2°F
Winds 26.5 mph NNE42.6 mph NNE Calm Calm 3.7 mph 6.0 mph
Wind Gusts 33.3 mph53.6 mph -- 5.8 mph9.3 mph
Humidity 85% 25% 52%
Pressure 30.25 in1024.40 in 30.14 in1020.70 in -
Precipitation 0.00 in0.00 in - -
Hour Temp Dew Point Humidity Winds Wind Gusts Pressure Precip Precip Rate Daily Precip Total
12:02 AM 62.3°F16.8°C 51.2°F10.7°C 67% 1.5 mph E2.4 kmh E 2.0 mph3.2 kmh 30.25 in1024.4 mb 0.00 in0.0 mm 0.00 in/hr0.0 mm/hr 0.00 in0.0 mm
12:07 AM 62.3°F16.8°C 51.2°F10.7°C 67% 3.1 mph E5.0 kmh E 3.4 mph5.5 kmh 30.24 in1024.0 mb 0.00 in0.0 mm 0.00 in/hr0.0 mm/hr 0.00 in0.0 mm
12:12 AM 62.1°F16.7°C 51.0°F10.6°C 67% 3.5 mph ENE5.6 kmh ENE 4.0 mph6.4 kmh 30.24 in1024.0 mb 0.00 in0.0 mm 0.00 in/hr0.0 mm/hr 0.00 in0.0 mm
12:17 AM 61.9°F16.6°C 50.9°F10.5°C 67% 5.0 mph NE8.0 kmh NE 6.7 mph10.8 kmh 30.24 in1024.0 mb 0.00 in0.0 mm 0.00 in/hr0.0 mm/hr 0.00 in0.0 mm
12:22 AM 61.9°F16.6°C 50.9°F10.5°C 67% 3.3 mph NE5.3 kmh NE 6.7 mph10.8 kmh 30.24 in1024.0 mb 0.00 in0.0 mm 0.00 in/hr0.0 mm/hr 0.00 in0.0 mm
12:27 AM 61.7°F16.5°C 50.7°F10.4°C 67% 2.5 mph WNW4.0 kmh WNW 6.3 mph10.1 kmh 30.23 in1023.7 mb 0.00 in0.0 mm 0.00 in/hr0.0 mm/hr 0.00 in0.0 mm
12:32 AM 61.6°F16.4°C 50.9°F10.5°C 68% 1.8 mph NE2.9 kmh NE 2.7 mph4.3 kmh 30.23 in1023.7 mb 0.00 in0.0 mm 0.00 in/hr0.0 mm/hr 0.00 in0.0 mm
12:37 AM 61.0°F16.1°C 50.0°F10.0°C 67% 3.7 mph NE6.0 kmh NE 4.3 mph6.9 kmh 30.23 in1023.7 mb 0.00 in0.0 mm 0.00 in/hr0.0 mm/hr 0.00 in0.0 mm
12:42 AM 60.8°F16.0°C 50.3°F10.2°C 68% 0.2 mph NNW0.3 kmh NNW 4.5 mph7.2 kmh 30.23 in1023.7 mb 0.00 in0.0 mm 0.00 in/hr0.0 mm/hr 0.00 in0.0 mm
12:47 AM 60.7°F15.9°C 50.1°F10.1°C 68% 0.4 mph NNW0.6 kmh NNW 4.5 mph7.2 kmh 30.23 in1023.7 mb 0.00 in0.0 mm 0.00 in/hr0.0 mm/hr 0.00 in0.0 mm
12:52 AM 60.5°F15.8°C 50.0°F10.0°C 68% 0.4 mph 0.6 kmh 0.7 mph1.1 kmh 30.22 in1023.4 mb 0.00 in0.0 mm 0.00 in/hr0.0 mm/hr 0.00 in0.0 mm
12:57 AM 60.1°F15.6°C 50.0°F10.0°C 69% 1.5 mph S2.4 kmh S 1.8 mph2.9 kmh 30.22 in1023.4 mb 0.00 in0.0 mm 0.00 in/hr0.0 mm/hr 0.00 in0.0 mm
01:02 AM 59.9°F15.5°C 50.2°F10.1°C 70% 2.8 mph SSE4.5 kmh SSE 3.1 mph5.0 kmh 30.21 in1023.0 mb 0.00 in0.0 mm 0.00 in/hr0.0 mm/hr 0.00 in0.0 mm
01:07 AM 59.6°F15.3°C 50.2°F10.1°C 71% 1.9 mph SSE3.1 kmh SSE 4.0 mph6.4 kmh 30.21 in1023.0 mb 0.00 in0.0 mm 0.00 in/hr0.0 mm/hr 0.00 in0.0 mm
01:12 AM 59.4°F15.2°C 50.0°F10.0°C 71% 0.2 mph SE0.3 kmh SE 4.0 mph6.4 kmh 30.21 in1023.0 mb 0.00 in0.0 mm 0.00 in/hr0.0 mm/hr 0.00 in0.0 mm
01:17 AM 59.4°F15.2°C 50.0°F10.0°C 71% 0.4 mph S0.6 kmh S 0.4 mph0.6 kmh 30.21 in1023.0 mb 0.00 in0.0 mm 0.00 in/hr0.0 mm/hr 0.00 in0.0 mm
01:22 AM 59.4°F15.2°C 50.4°F10.2°C 72% Calm Calm 0.4 mph0.6 kmh 30.21 in1023.0 mb 0.00 in0.0 mm 0.00 in/hr0.0 mm/hr 0.00 in0.0 mm
01:27 AM 59.2°F15.1°C 50.2°F10.1°C 72% 0.7 mph S1.1 kmh S 0.7 mph1.1 kmh 30.21 in1023.0 mb 0.00 in0.0 mm 0.00 in/hr0.0 mm/hr 0.00 in0.0 mm
01:32 AM 59.0°F15.0°C 50.0°F10.0°C 72% 0.6 mph SSE1.0 kmh SSE 1.3 mph2.1 kmh 30.21 in1023.0 mb 0.00 in0.0 mm 0.00 in/hr0.0 mm/hr 0.00 in0.0 mm
01:37 AM 59.0°F15.0°C 50.0°F10.0°C 72% 1.0 mph NNE1.6 kmh NNE 1.3 mph2.1 kmh 30.21 in1023.0 mb 0.00 in0.0 mm 0.00 in/hr0.0 mm/hr 0.00 in0.0 mm
01:42 AM 59.0°F15.0°C 50.4°F10.2°C 73% 4.3 mph 6.9 kmh 4.7 mph7.6 kmh 30.21 in1023.0 mb 0.00 in0.0 mm 0.00 in/hr0.0 mm/hr 0.00 in0.0 mm
01:47 AM 58.9°F14.9°C 50.2°F10.1°C 73% 3.3 mph 5.3 kmh 4.7 mph7.6 kmh 30.21 in1023.0 mb 0.00 in0.0 mm 0.00 in/hr0.0 mm/hr 0.00 in0.0 mm
01:52 AM 58.7°F14.8°C 50.4°F10.2°C 74% 4.9 mph NNW7.9 kmh NNW 7.2 mph11.6 kmh 30.21 in1023.0 mb 0.00 in0.0 mm 0.00 in/hr0.0 mm/hr 0.00 in0.0 mm
01:57 AM 58.3°F14.6°C 50.4°F10.2°C 75% 8.7 mph 14.0 kmh 8.9 mph14.3 kmh 30.21 in1023.0 mb 0.00 in0.0 mm 0.00 in/hr0.0 mm/hr 0.00 in0.0 mm
02:02 AM 58.1°F14.5°C 50.6°F10.3°C 76% 4.9 mph N7.9 kmh N 8.9 mph14.3 kmh 30.21 in1023.0 mb 0.00 in0.0 mm 0.00 in/hr0.0 mm/hr 0.00 in0.0 mm
02:07 AM 58.1°F14.5°C 50.6°F10.3°C 76% 7.5 mph NNW12.1 kmh NNW 8.9 mph14.3 kmh 30.21 in1023.0 mb 0.00 in0.0 mm 0.00 in/hr0.0 mm/hr 0.00 in0.0 mm
02:12 AM 58.1°F14.5°C 50.6°F10.3°C 76% 5.5 mph NNW8.9 kmh NNW 8.1 mph13.0 kmh 30.21 in1023.0 mb 0.00 in0.0 mm 0.00 in/hr0.0 mm/hr 0.00 in0.0 mm
02:17 AM 58.0°F14.4°C 50.8°F10.4°C 77% 4.7 mph NNW7.6 kmh NNW 6.3 mph10.1 kmh 30.21 in1023.0 mb 0.00 in0.0 mm 0.00 in/hr0.0 mm/hr 0.00 in0.0 mm
02:22 AM 57.8°F14.3°C 50.9°F10.5°C 78% 5.9 mph NNW9.5 kmh NNW 6.9 mph11.1 kmh 30.22 in1023.4 mb 0.00 in0.0 mm 0.00 in/hr0.0 mm/hr 0.00 in0.0 mm
02:27 AM 57.6°F14.2°C 51.1°F10.6°C 79% 3.5 mph N5.6 kmh N 6.9 mph11.1 kmh 30.21 in1023.0 mb 0.00 in0.0 mm 0.00 in/hr0.0 mm/hr 0.00 in0.0 mm
02:32 AM 57.6°F14.2°C 51.1°F10.6°C 79% 0.8 mph WNW1.3 kmh WNW 5.1 mph8.2 kmh 30.22 in1023.4 mb 0.00 in0.0 mm 0.00 in/hr0.0 mm/hr 0.00 in0.0 mm
02:37 AM 57.4°F14.1°C 50.9°F10.5°C 79% 0.8 mph SSE1.3 kmh SSE 2.7 mph4.3 kmh 30.22 in1023.4 mb 0.00 in0.0 mm 0.00 in/hr0.0 mm/hr 0.00 in0.0 mm
02:42 AM 57.4°F14.1°C 50.9°F10.5°C 79% 0.2 mph SSE0.3 kmh SSE 2.7 mph4.3 kmh 30.22 in1023.4 mb 0.00 in0.0 mm 0.00 in/hr0.0 mm/hr 0.00 in0.0 mm
02:47 AM 57.2°F14.0°C 50.8°F10.4°C 79% 0.4 mph 0.6 kmh 0.7 mph1.1 kmh 30.21 in1023.0 mb 0.00 in0.0 mm 0.00 in/hr0.0 mm/hr 0.00 in0.0 mm
02:52 AM 57.2°F14.0°C 50.4°F10.2°C 78% 0.8 mph NNE1.3 kmh NNE 1.1 mph1.8 kmh 30.21 in1023.0 mb 0.00 in0.0 mm 0.00 in/hr0.0 mm/hr 0.00 in0.0 mm
02:57 AM 57.2°F14.0°C 50.4°F10.2°C 78% 0.3 mph NNE0.5 kmh NNE 1.1 mph1.8 kmh 30.21 in1023.0 mb 0.00 in0.0 mm 0.00 in/hr0.0 mm/hr 0.00 in0.0 mm
03:03 AM 57.2°F14.0°C 50.4°F10.2°C 78% 1.5 mph NE2.4 kmh NE 1.8 mph2.9 kmh 30.22 in1023.4 mb 0.00 in0.0 mm 0.00 in/hr0.0 mm/hr 0.00 in0.0 mm
03:08 AM 57.2°F14.0°C 50.4°F10.2°C 78% 1.6 mph NE2.6 kmh NE 2.0 mph3.2 kmh 30.22 in1023.4 mb 0.00 in0.0 mm 0.00 in/hr0.0 mm/hr 0.00 in0.0 mm
03:13 AM 57.2°F14.0°C 50.4°F10.2°C 78% 1.1 mph 1.8 kmh 2.0 mph3.2 kmh 30.22 in1023.4 mb 0.00 in0.0 mm 0.00 in/hr0.0 mm/hr 0.00 in0.0 mm
03:18 AM 57.2°F14.0°C 50.8°F10.4°C 79% 1.0 mph NE1.6 kmh NE 1.6 mph2.6 kmh 30.22 in1023.4 mb 0.00 in0.0 mm 0.00 in/hr0.0 mm/hr 0.00 in0.0 mm
03:23 AM 57.2°F14.0°C 50.8°F10.4°C 79% 0.2 mph NE0.3 kmh NE 1.1 mph1.8 kmh 30.22 in1023.4 mb 0.00 in0.0 mm 0.00 in/hr0.0 mm/hr 0.00 in0.0 mm
03:27 AM 57.2°F14.0°C 50.8°F10.4°C 79% 0.4 mph NE0.6 kmh NE 0.9 mph1.4 kmh 30.22 in1023.4 mb 0.00 in0.0 mm 0.00 in/hr0.0 mm/hr 0.00 in0.0 mm
03:32 AM 57.2°F14.0°C 50.8°F10.4°C 79% 0.3 mph NNE0.5 kmh NNE 0.4 mph0.6 kmh 30.22 in1023.4 mb 0.00 in0.0 mm 0.00 in/hr0.0 mm/hr 0.00 in0.0 mm
03:37 AM 57.1°F13.9°C 50.2°F10.1°C 78% 0.8 mph NNE1.3 kmh NNE 0.9 mph1.4 kmh 30.22 in1023.4 mb 0.00 in0.0 mm 0.00 in/hr0.0 mm/hr 0.00 in0.0 mm
03:42 AM 56.9°F13.8°C 50.0°F10.0°C 78% 3.2 mph 5.1 kmh 3.4 mph5.5 kmh 30.22 in1023.4 mb 0.00 in0.0 mm 0.00 in/hr0.0 mm/hr 0.00 in0.0 mm
03:47 AM 56.5°F13.6°C 50.0°F10.0°C 79% 2.5 mph N4.0 kmh N 3.6 mph5.8 kmh 30.22 in1023.4 mb 0.00 in0.0 mm 0.00 in/hr0.0 mm/hr 0.00 in0.0 mm
03:52 AM 56.2°F13.4°C 49.7°F9.8°C 79% 3.9 mph 6.3 kmh 5.1 mph8.2 kmh 30.22 in1023.4 mb 0.00 in0.0 mm 0.00 in/hr0.0 mm/hr 0.00 in0.0 mm
03:57 AM 56.0°F13.3°C 50.2°F10.1°C 81% 4.3 mph NNE6.9 kmh NNE 5.1 mph8.2 kmh 30.22 in1023.4 mb 0.00 in0.0 mm 0.00 in/hr0.0 mm/hr 0.00 in0.0 mm
04:03 AM 55.8°F13.2°C 50.1°F10.1°C 81% 4.6 mph N7.4 kmh N 5.1 mph8.2 kmh 30.22 in1023.4 mb 0.00 in0.0 mm 0.00 in/hr0.0 mm/hr 0.00 in0.0 mm
04:08 AM 55.8°F13.2°C 50.1°F10.1°C 81% 3.3 mph 5.3 kmh 5.8 mph9.3 kmh 30.22 in1023.4 mb 0.00 in0.0 mm 0.00 in/hr0.0 mm/hr 0.00 in0.0 mm
04:13 AM 55.6°F13.1°C 49.9°F9.9°C 81% 1.4 mph NNE2.3 kmh NNE 5.8 mph9.3 kmh 30.22 in1023.4 mb 0.00 in0.0 mm 0.00 in/hr0.0 mm/hr 0.00 in0.0 mm
04:18 AM 55.4°F13.0°C 49.7°F9.8°C 81% 1.1 mph SSE1.8 kmh SSE 2.0 mph3.2 kmh 30.22 in1023.4 mb 0.00 in0.0 mm 0.00 in/hr0.0 mm/hr 0.00 in0.0 mm
04:23 AM 55.3°F12.9°C 49.1°F9.5°C 80% 0.6 mph NE1.0 kmh NE 2.0 mph3.2 kmh 30.22 in1023.4 mb 0.00 in0.0 mm 0.00 in/hr0.0 mm/hr 0.00 in0.0 mm
04:28 AM 54.9°F12.7°C 48.9°F9.4°C 80% 0.2 mph SSE0.3 kmh SSE 1.3 mph2.1 kmh 30.22 in1023.4 mb 0.00 in0.0 mm 0.00 in/hr0.0 mm/hr 0.00 in0.0 mm
04:33 AM 54.7°F12.6°C 49.0°F9.4°C 81% 0.7 mph SW1.1 kmh SW 1.3 mph2.1 kmh 30.22 in1023.4 mb 0.00 in0.0 mm 0.00 in/hr0.0 mm/hr 0.00 in0.0 mm
04:38 AM 54.4°F12.4°C 48.7°F9.3°C 81% 0.7 mph SW1.1 kmh SW 1.1 mph1.8 kmh 30.22 in1023.4 mb 0.00 in0.0 mm 0.00 in/hr0.0 mm/hr 0.00 in0.0 mm
04:43 AM 54.4°F12.4°C 49.0°F9.4°C 82% 0.2 mph WNW0.3 kmh WNW 2.0 mph3.2 kmh 30.22 in1023.4 mb 0.00 in0.0 mm 0.00 in/hr0.0 mm/hr 0.00 in0.0 mm
04:48 AM 54.2°F12.3°C 48.8°F9.3°C 82% 0.4 mph WNW0.6 kmh WNW 2.0 mph3.2 kmh 30.22 in1023.4 mb 0.00 in0.0 mm 0.00 in/hr0.0 mm/hr 0.00 in0.0 mm
04:53 AM 54.0°F12.2°C 48.6°F9.2°C 82% Calm Calm 0.4 mph0.6 kmh 30.22 in1023.4 mb 0.00 in0.0 mm 0.00 in/hr0.0 mm/hr 0.00 in0.0 mm
04:58 AM 53.8°F12.1°C 48.5°F9.2°C 82% 0.9 mph NNW1.4 kmh NNW 1.1 mph1.8 kmh 30.22 in1023.4 mb 0.00 in0.0 mm 0.00 in/hr0.0 mm/hr 0.00 in0.0 mm
05:03 AM 53.6°F12.0°C 48.3°F9.1°C 82% 1.8 mph 2.9 kmh 2.5 mph4.0 kmh 30.22 in1023.4 mb 0.00 in0.0 mm 0.00 in/hr0.0 mm/hr 0.00 in0.0 mm
05:08 AM 53.6°F12.0°C 48.3°F9.1°C 82% Calm Calm 2.5 mph4.0 kmh 30.22 in1023.4 mb 0.00 in0.0 mm 0.00 in/hr0.0 mm/hr 0.00 in0.0 mm
05:13 AM 53.3°F11.8°C 48.0°F8.9°C 82% 1.1 mph NNW1.8 kmh NNW 1.1 mph1.8 kmh 30.22 in1023.4 mb 0.00 in0.0 mm 0.00 in/hr0.0 mm/hr 0.00 in0.0 mm
05:18 AM 53.3°F11.8°C 48.0°F8.9°C 82% 0.7 mph NNW1.1 kmh NNW 1.1 mph1.8 kmh 30.22 in1023.4 mb 0.00 in0.0 mm 0.00 in/hr0.0 mm/hr 0.00 in0.0 mm
05:23 AM 53.1°F11.7°C 47.8°F8.8°C 82% 3.3 mph N5.3 kmh N 3.4 mph5.5 kmh 30.22 in1023.4 mb 0.00 in0.0 mm 0.00 in/hr0.0 mm/hr 0.00 in0.0 mm
05:28 AM 52.7°F11.5°C 47.4°F8.6°C 82% 3.7 mph NE6.0 kmh NE 4.0 mph6.4 kmh 30.22 in1023.4 mb 0.00 in0.0 mm 0.00 in/hr0.0 mm/hr 0.00 in0.0 mm
05:33 AM 52.7°F11.5°C 47.7°F8.7°C 83% 4.0 mph NE6.4 kmh NE 4.7 mph7.6 kmh 30.22 in1023.4 mb 0.00 in0.0 mm 0.00 in/hr0.0 mm/hr 0.00 in0.0 mm
05:38 AM 52.6°F11.4°C 47.5°F8.6°C 83% 2.0 mph NE3.2 kmh NE 4.7 mph7.6 kmh 30.23 in1023.7 mb 0.00 in0.0 mm 0.00 in/hr0.0 mm/hr 0.00 in0.0 mm
05:43 AM 52.4°F11.3°C 47.3°F8.5°C 83% 1.8 mph NNW2.9 kmh NNW 3.4 mph5.5 kmh 30.23 in1023.7 mb 0.00 in0.0 mm 0.00 in/hr0.0 mm/hr 0.00 in0.0 mm
05:48 AM 52.0°F11.1°C 47.0°F8.3°C 83% 0.9 mph W1.4 kmh W 2.2 mph3.5 kmh 30.23 in1023.7 mb 0.00 in0.0 mm 0.00 in/hr0.0 mm/hr 0.00 in0.0 mm
05:53 AM 51.7°F10.9°C 46.6°F8.1°C 83% Calm Calm 1.1 mph1.8 kmh 30.23 in1023.7 mb 0.00 in0.0 mm 0.00 in/hr0.0 mm/hr 0.00 in0.0 mm
05:58 AM 51.5°F10.8°C 46.4°F8.0°C 83% Calm Calm 0.4 mph0.6 kmh 30.23 in1023.7 mb 0.00 in0.0 mm 0.00 in/hr0.0 mm/hr 0.00 in0.0 mm
06:03 AM 51.5°F10.8°C 46.4°F8.0°C 83% 0.6 mph NE1.0 kmh NE 0.7 mph1.1 kmh 30.23 in1023.7 mb 0.00 in0.0 mm 0.00 in/hr0.0 mm/hr 0.00 in0.0 mm
06:08 AM 51.7°F10.9°C 47.0°F8.3°C 84% 0.2 mph 0.3 kmh 0.7 mph1.1 kmh 30.23 in1023.7 mb 0.00 in0.0 mm 0.00 in/hr0.0 mm/hr 0.00 in0.0 mm
06:13 AM 52.2°F11.2°C 47.5°F8.6°C 84% Calm Calm 0.7 mph1.1 kmh 30.23 in1023.7 mb 0.00 in0.0 mm 0.00 in/hr0.0 mm/hr 0.00 in0.0 mm
06:18 AM 52.6°F11.4°C 47.9°F8.8°C 84% Calm Calm -- 30.23 in1023.7 mb 0.00 in0.0 mm 0.00 in/hr0.0 mm/hr 0.00 in0.0 mm
06:23 AM 53.1°F11.7°C 48.4°F9.1°C 84% Calm Calm -- 30.23 in1023.7 mb 0.00 in0.0 mm 0.00 in/hr0.0 mm/hr 0.00 in0.0 mm
06:28 AM 53.6°F12.0°C 49.0°F9.4°C 84% 1.2 mph 1.9 kmh 1.3 mph2.1 kmh 30.24 in1024.0 mb 0.00 in0.0 mm 0.00 in/hr0.0 mm/hr 0.00 in0.0 mm
06:33 AM 54.0°F12.2°C 49.0°F9.4°C 83% 2.2 mph N3.5 kmh N 2.5 mph4.0 kmh 30.24 in1024.0 mb 0.00 in0.0 mm 0.00 in/hr0.0 mm/hr 0.00 in0.0 mm
06:38 AM 54.4°F12.4°C 49.6°F9.8°C 84% 0.4 mph NE0.6 kmh NE 2.5 mph4.0 kmh 30.24 in1024.0 mb 0.00 in0.0 mm 0.00 in/hr0.0 mm/hr 0.00 in0.0 mm
06:43 AM 55.4°F13.0°C 50.6°F10.3°C 84% Calm Calm 2.0 mph3.2 kmh 30.24 in1024.0 mb 0.00 in0.0 mm 0.00 in/hr0.0 mm/hr 0.00 in0.0 mm
06:48 AM 56.3°F13.5°C 51.5°F10.8°C 84% Calm Calm -- 30.24 in1024.0 mb 0.00 in0.0 mm 0.00 in/hr0.0 mm/hr 0.00 in0.0 mm
06:53 AM 57.2°F14.0°C 52.7°F11.5°C 85% 0.4 mph NE0.6 kmh NE 0.4 mph0.6 kmh 30.24 in1024.0 mb 0.00 in0.0 mm 0.00 in/hr0.0 mm/hr 0.00 in0.0 mm
06:58 AM 58.1°F14.5°C 53.3°F11.8°C 84% Calm Calm 0.4 mph0.6 kmh 30.24 in1024.0 mb 0.00 in0.0 mm 0.00 in/hr0.0 mm/hr 0.00 in0.0 mm
07:03 AM 58.9°F14.9°C 53.7°F12.1°C 83% Calm Calm -- 30.24 in1024.0 mb 0.00 in0.0 mm 0.00 in/hr0.0 mm/hr 0.00 in0.0 mm
07:08 AM 59.6°F15.3°C 54.1°F12.3°C 82% 0.8 mph SW1.3 kmh SW 1.1 mph1.8 kmh 30.24 in1024.0 mb 0.00 in0.0 mm 0.00 in/hr0.0 mm/hr 0.00 in0.0 mm
07:13 AM 60.1°F15.6°C 54.4°F12.4°C 81% 1.0 mph WSW1.6 kmh WSW 1.8 mph2.9 kmh 30.24 in1024.0 mb 0.00 in0.0 mm 0.00 in/hr0.0 mm/hr 0.00 in0.0 mm
07:18 AM 60.7°F15.9°C 54.5°F12.5°C 80% Calm Calm 1.8 mph2.9 kmh 30.24 in1024.0 mb 0.00 in0.0 mm 0.00 in/hr0.0 mm/hr 0.00 in0.0 mm
07:23 AM 61.0°F16.1°C 54.6°F12.6°C 79% 0.9 mph NNE1.4 kmh NNE 1.1 mph1.8 kmh 30.24 in1024.0 mb 0.00 in0.0 mm 0.00 in/hr0.0 mm/hr 0.00 in0.0 mm
07:28 AM 61.6°F16.4°C 54.3°F12.4°C 77% 0.8 mph NW1.3 kmh NW 1.3 mph2.1 kmh 30.25 in1024.4 mb 0.00 in0.0 mm 0.00 in/hr0.0 mm/hr 0.00 in0.0 mm
07:33 AM 61.6°F16.4°C 53.9°F12.2°C 76% 0.7 mph NNW1.1 kmh NNW 1.3 mph2.1 kmh 30.24 in1024.0 mb 0.00 in0.0 mm 0.00 in/hr0.0 mm/hr 0.00 in0.0 mm
07:38 AM 62.3°F16.8°C 54.2°F12.3°C 75% 0.6 mph NE1.0 kmh NE 2.0 mph3.2 kmh 30.24 in1024.0 mb 0.00 in0.0 mm 0.00 in/hr0.0 mm/hr 0.00 in0.0 mm
07:43 AM 62.8°F17.1°C 54.7°F12.6°C 75% 0.8 mph NE1.3 kmh NE 2.0 mph3.2 kmh 30.24 in1024.0 mb 0.00 in0.0 mm 0.00 in/hr0.0 mm/hr 0.00 in0.0 mm
07:48 AM 63.5°F17.5°C 55.1°F12.8°C 74% 0.8 mph NNE1.3 kmh NNE 1.8 mph2.9 kmh 30.24 in1024.0 mb 0.00 in0.0 mm 0.00 in/hr0.0 mm/hr 0.00 in0.0 mm
07:53 AM 64.4°F18.0°C 55.3°F12.9°C 72% 0.4 mph 0.6 kmh 1.3 mph2.1 kmh 30.24 in1024.0 mb 0.00 in0.0 mm 0.00 in/hr0.0 mm/hr 0.00 in0.0 mm
07:58 AM 65.2°F18.4°C 55.5°F13.1°C 71% 0.2 mph ENE0.3 kmh ENE 0.4 mph0.6 kmh 30.25 in1024.4 mb 0.00 in0.0 mm 0.00 in/hr0.0 mm/hr 0.00 in0.0 mm
08:04 AM 66.1°F18.9°C 56.0°F13.3°C 70% 1.8 mph WSW2.9 kmh WSW 1.8 mph2.9 kmh 30.24 in1024.0 mb 0.00 in0.0 mm 0.00 in/hr0.0 mm/hr 0.00 in0.0 mm
08:09 AM 66.6°F19.2°C 56.1°F13.4°C 69% 0.4 mph WSW0.6 kmh WSW 1.8 mph2.9 kmh 30.25 in1024.4 mb 0.00 in0.0 mm 0.00 in/hr0.0 mm/hr 0.00 in0.0 mm
08:14 AM 67.3°F19.6°C 55.5°F13.1°C 66% 0.7 mph W1.1 kmh W 1.8 mph2.9 kmh 30.25 in1024.4 mb 0.00 in0.0 mm 0.00 in/hr0.0 mm/hr 0.00 in0.0 mm
08:19 AM 67.9°F19.9°C 55.6°F13.1°C 65% 1.0 mph NW1.6 kmh NW 1.6 mph2.6 kmh 30.25 in1024.4 mb 0.00 in0.0 mm 0.00 in/hr0.0 mm/hr 0.00 in0.0 mm
08:24 AM 68.4°F20.2°C 55.7°F13.2°C 64% Calm Calm 1.6 mph2.6 kmh 30.25 in1024.4 mb 0.00 in0.0 mm 0.00 in/hr0.0 mm/hr 0.00 in0.0 mm
08:28 AM 68.8°F20.4°C 56.1°F13.4°C 64% 0.7 mph E1.1 kmh E 0.9 mph1.4 kmh 30.25 in1024.4 mb 0.00 in0.0 mm 0.00 in/hr0.0 mm/hr 0.00 in0.0 mm
08:33 AM 69.7°F20.9°C 57.3°F14.1°C 65% 1.1 mph S1.8 kmh S 2.7 mph4.3 kmh 30.25 in1024.4 mb 0.00 in0.0 mm 0.00 in/hr0.0 mm/hr 0.00 in0.0 mm
08:38 AM 70.7°F21.5°C 58.3°F14.6°C 65% 0.8 mph S1.3 kmh S 2.7 mph4.3 kmh 30.25 in1024.4 mb 0.00 in0.0 mm 0.00 in/hr0.0 mm/hr 0.00 in0.0 mm
08:43 AM 71.6°F22.0°C 58.8°F14.9°C 64% 0.9 mph SSE1.4 kmh SSE 1.8 mph2.9 kmh 30.25 in1024.4 mb 0.00 in0.0 mm 0.00 in/hr0.0 mm/hr 0.00 in0.0 mm
08:48 AM 72.4°F22.4°C 59.1°F15.1°C 63% 0.7 mph E1.1 kmh E 2.5 mph4.0 kmh 30.24 in1024.0 mb 0.00 in0.0 mm 0.00 in/hr0.0 mm/hr 0.00 in0.0 mm
08:53 AM 73.1°F22.8°C 59.2°F15.1°C 62% 1.9 mph E3.1 kmh E 2.5 mph4.0 kmh 30.25 in1024.4 mb 0.00 in0.0 mm 0.00 in/hr0.0 mm/hr 0.00 in0.0 mm
08:58 AM 73.6°F23.1°C 58.3°F14.6°C 59% 1.1 mph E1.8 kmh E 2.5 mph4.0 kmh 30.24 in1024.0 mb 0.00 in0.0 mm 0.00 in/hr0.0 mm/hr 0.00 in0.0 mm
09:04 AM 74.3°F23.5°C 59.0°F15.0°C 59% 2.7 mph SE4.3 kmh SE 3.6 mph5.8 kmh 30.24 in1024.0 mb 0.00 in0.0 mm 0.00 in/hr0.0 mm/hr 0.00 in0.0 mm
09:09 AM 74.9°F23.8°C 58.6°F14.8°C 57% 1.7 mph E2.7 kmh E 3.6 mph5.8 kmh 30.24 in1024.0 mb 0.00 in0.0 mm 0.00 in/hr0.0 mm/hr 0.00 in0.0 mm
09:14 AM 75.6°F24.2°C 59.3°F15.2°C 57% 1.6 mph SE2.6 kmh SE 3.4 mph5.5 kmh 30.24 in1024.0 mb 0.00 in0.0 mm 0.00 in/hr0.0 mm/hr 0.00 in0.0 mm
09:19 AM 76.3°F24.6°C 59.9°F15.5°C 57% 2.8 mph ESE4.5 kmh ESE 3.8 mph6.1 kmh 30.24 in1024.0 mb 0.00 in0.0 mm 0.00 in/hr0.0 mm/hr 0.00 in0.0 mm
09:24 AM 77.0°F25.0°C 60.1°F15.6°C 56% 2.2 mph ESE3.5 kmh ESE 4.0 mph6.4 kmh 30.24 in1024.0 mb 0.00 in0.0 mm 0.00 in/hr0.0 mm/hr 0.00 in0.0 mm
09:29 AM 77.6°F25.3°C 60.1°F15.6°C 55% 0.7 mph SSE1.1 kmh SSE 4.0 mph6.4 kmh 30.24 in1024.0 mb 0.00 in0.0 mm 0.00 in/hr0.0 mm/hr 0.00 in0.0 mm
09:34 AM 78.1°F25.6°C 59.6°F15.3°C 53% 1.0 mph ESE1.6 kmh ESE 3.4 mph5.5 kmh 30.24 in1024.0 mb 0.00 in0.0 mm 0.00 in/hr0.0 mm/hr 0.00 in0.0 mm
09:39 AM 78.7°F25.9°C 60.1°F15.6°C 53% 0.4 mph SSW0.6 kmh SSW 3.4 mph5.5 kmh 30.24 in1024.0 mb 0.00 in0.0 mm 0.00 in/hr0.0 mm/hr 0.00 in0.0 mm
09:44 AM 79.4°F26.3°C 60.2°F15.7°C 52% 1.5 mph S2.4 kmh S 2.2 mph3.5 kmh 30.24 in1024.0 mb 0.00 in0.0 mm 0.00 in/hr0.0 mm/hr 0.00 in0.0 mm
09:49 AM 80.3°F26.8°C 60.5°F15.8°C 51% 1.9 mph S3.1 kmh S 2.2 mph3.5 kmh 30.24 in1024.0 mb 0.00 in0.0 mm 0.00 in/hr0.0 mm/hr 0.00 in0.0 mm
09:53 AM 80.8°F27.1°C 60.5°F15.8°C 50% 0.7 mph SW1.1 kmh SW 2.2 mph3.5 kmh 30.24 in1024.0 mb 0.00 in0.0 mm 0.00 in/hr0.0 mm/hr 0.00 in0.0 mm
09:58 AM 81.0°F27.2°C 60.0°F15.6°C 49% 0.8 mph WSW1.3 kmh WSW 1.8 mph2.9 kmh 30.24 in1024.0 mb 0.00 in0.0 mm 0.00 in/hr0.0 mm/hr 0.00 in0.0 mm
10:04 AM 81.0°F27.2°C 58.8°F14.9°C 47% 0.7 mph SW1.1 kmh SW 1.8 mph2.9 kmh 30.24 in1024.0 mb 0.00 in0.0 mm 0.00 in/hr0.0 mm/hr 0.00 in0.0 mm
10:09 AM 81.5°F27.5°C 59.9°F15.5°C 48% 1.6 mph SW2.6 kmh SW 1.8 mph2.9 kmh 30.24 in1024.0 mb 0.00 in0.0 mm 0.00 in/hr0.0 mm/hr 0.00 in0.0 mm
10:14 AM 81.7°F27.6°C 57.6°F14.2°C 44% 1.7 mph WNW2.7 kmh WNW 2.2 mph3.5 kmh 30.24 in1024.0 mb 0.00 in0.0 mm 0.00 in/hr0.0 mm/hr 0.00 in0.0 mm
10:19 AM 81.0°F27.2°C 57.0°F13.9°C 44% 0.9 mph SW1.4 kmh SW 2.2 mph3.5 kmh 30.24 in1024.0 mb 0.00 in0.0 mm 0.00 in/hr0.0 mm/hr 0.00 in0.0 mm
10:24 AM 81.2°F27.3°C 55.9°F13.3°C 42% 3.2 mph NW5.1 kmh NW 4.5 mph7.2 kmh 30.24 in1024.0 mb 0.00 in0.0 mm 0.00 in/hr0.0 mm/hr 0.00 in0.0 mm
10:29 AM 80.6°F27.0°C 56.0°F13.3°C 43% 2.2 mph WSW3.5 kmh WSW 4.5 mph7.2 kmh 30.23 in1023.7 mb 0.00 in0.0 mm 0.00 in/hr0.0 mm/hr 0.00 in0.0 mm
10:34 AM 81.7°F27.6°C 57.6°F14.2°C 44% 1.9 mph NE3.1 kmh NE 3.8 mph6.1 kmh 30.23 in1023.7 mb 0.00 in0.0 mm 0.00 in/hr0.0 mm/hr 0.00 in0.0 mm
10:39 AM 82.4°F28.0°C 57.6°F14.2°C 43% 2.0 mph E3.2 kmh E 3.4 mph5.5 kmh 30.23 in1023.7 mb 0.00 in0.0 mm 0.00 in/hr0.0 mm/hr 0.00 in0.0 mm
10:44 AM 83.5°F28.6°C 59.9°F15.5°C 45% 2.7 mph SSW4.3 kmh SSW 4.7 mph7.6 kmh 30.23 in1023.7 mb 0.00 in0.0 mm 0.00 in/hr0.0 mm/hr 0.00 in0.0 mm
10:49 AM 84.6°F29.2°C 60.3°F15.7°C 44% 3.3 mph SE5.3 kmh SE 5.1 mph8.2 kmh 30.23 in1023.7 mb 0.00 in0.0 mm 0.00 in/hr0.0 mm/hr 0.00 in0.0 mm
10:54 AM 85.3°F29.6°C 59.1°F15.1°C 41% 1.2 mph NE1.9 kmh NE 5.1 mph8.2 kmh 30.23 in1023.7 mb 0.00 in0.0 mm 0.00 in/hr0.0 mm/hr 0.00 in0.0 mm
10:59 AM 85.5°F29.7°C 58.6°F14.8°C 40% 2.1 mph SSE3.4 kmh SSE 3.8 mph6.1 kmh 30.23 in1023.7 mb 0.00 in0.0 mm 0.00 in/hr0.0 mm/hr 0.00 in0.0 mm
11:04 AM 86.2°F30.1°C 61.1°F16.2°C 43% 3.3 mph ESE5.3 kmh ESE 4.0 mph6.4 kmh 30.22 in1023.4 mb 0.00 in0.0 mm 0.00 in/hr0.0 mm/hr 0.00 in0.0 mm
11:09 AM 87.1°F30.6°C 61.3°F16.3°C 42% 2.3 mph S3.7 kmh S 4.0 mph6.4 kmh 30.22 in1023.4 mb 0.00 in0.0 mm 0.00 in/hr0.0 mm/hr 0.00 in0.0 mm
11:14 AM 87.5°F30.8°C 59.5°F15.3°C 39% 3.3 mph ENE5.3 kmh ENE 4.0 mph6.4 kmh 30.22 in1023.4 mb 0.00 in0.0 mm 0.00 in/hr0.0 mm/hr 0.00 in0.0 mm
11:19 AM 87.3°F30.7°C 58.6°F14.8°C 38% 0.7 mph N1.1 kmh N 4.0 mph6.4 kmh 30.22 in1023.4 mb 0.00 in0.0 mm 0.00 in/hr0.0 mm/hr 0.00 in0.0 mm
11:24 AM 87.3°F30.7°C 57.0°F13.9°C 36% 0.4 mph E0.6 kmh E 4.0 mph6.4 kmh 30.22 in1023.4 mb 0.00 in0.0 mm 0.00 in/hr0.0 mm/hr 0.00 in0.0 mm
11:29 AM 87.5°F30.8°C 58.7°F14.8°C 38% 2.1 mph NE3.4 kmh NE 4.0 mph6.4 kmh 30.22 in1023.4 mb 0.00 in0.0 mm 0.00 in/hr0.0 mm/hr 0.00 in0.0 mm
11:34 AM 87.5°F30.8°C 59.5°F15.3°C 39% 2.5 mph SSE4.0 kmh SSE 4.0 mph6.4 kmh 30.22 in1023.4 mb 0.00 in0.0 mm 0.00 in/hr0.0 mm/hr 0.00 in0.0 mm
11:39 AM 87.8°F31.0°C 55.8°F13.2°C 34% 4.7 mph 7.6 kmh 5.4 mph8.7 kmh 30.22 in1023.4 mb 0.00 in0.0 mm 0.00 in/hr0.0 mm/hr 0.00 in0.0 mm
11:44 AM 86.4°F30.2°C 53.0°F11.7°C 32% 0.6 mph NNW1.0 kmh NNW 8.3 mph13.4 kmh 30.22 in1023.4 mb 0.00 in0.0 mm 0.00 in/hr0.0 mm/hr 0.00 in0.0 mm
11:49 AM 86.9°F30.5°C 58.2°F14.6°C 38% 4.2 mph WSW6.8 kmh WSW 8.3 mph13.4 kmh 30.22 in1023.4 mb 0.00 in0.0 mm 0.00 in/hr0.0 mm/hr 0.00 in0.0 mm
11:54 AM 87.5°F30.8°C 55.5°F13.1°C 34% 5.6 mph NE9.0 kmh NE 6.5 mph10.5 kmh 30.22 in1023.4 mb 0.00 in0.0 mm 0.00 in/hr0.0 mm/hr 0.00 in0.0 mm
12:00 PM 87.1°F30.6°C 53.6°F12.0°C 32% 3.9 mph ENE6.3 kmh ENE 8.1 mph13.0 kmh 30.22 in1023.4 mb 0.00 in0.0 mm 0.00 in/hr0.0 mm/hr 0.00 in0.0 mm
12:05 PM 86.9°F30.5°C 53.5°F11.9°C 32% 4.3 mph E6.9 kmh E 8.7 mph14.0 kmh 30.21 in1023.0 mb 0.00 in0.0 mm 0.00 in/hr0.0 mm/hr 0.00 in0.0 mm
12:10 PM 86.9°F30.5°C 51.8°F11.0°C 30% 7.6 mph NE12.2 kmh NE 10.3 mph16.6 kmh 30.21 in1023.0 mb 0.00 in0.0 mm 0.00 in/hr0.0 mm/hr 0.00 in0.0 mm
12:14 PM 86.2°F30.1°C 51.3°F10.7°C 30% 7.3 mph ENE11.7 kmh ENE 10.7 mph17.2 kmh 30.21 in1023.0 mb 0.00 in0.0 mm 0.00 in/hr0.0 mm/hr 0.00 in0.0 mm
12:19 PM 86.8°F30.4°C 54.9°F12.7°C 34% 3.6 mph SE5.8 kmh SE 10.7 mph17.2 kmh 30.21 in1023.0 mb 0.00 in0.0 mm 0.00 in/hr0.0 mm/hr 0.00 in0.0 mm
12:24 PM 87.8°F31.0°C 55.8°F13.2°C 34% 3.2 mph SE5.1 kmh SE 9.8 mph15.8 kmh 30.21 in1023.0 mb 0.00 in0.0 mm 0.00 in/hr0.0 mm/hr 0.00 in0.0 mm
12:29 PM 87.8°F31.0°C 52.6°F11.4°C 30% 7.2 mph E11.6 kmh E 10.3 mph16.6 kmh 30.21 in1023.0 mb 0.00 in0.0 mm 0.00 in/hr0.0 mm/hr 0.00 in0.0 mm
12:34 PM 88.0°F31.1°C 55.2°F12.9°C 33% 7.3 mph E11.7 kmh E 10.3 mph16.6 kmh 30.21 in1023.0 mb 0.00 in0.0 mm 0.00 in/hr0.0 mm/hr 0.00 in0.0 mm
12:39 PM 87.7°F30.9°C 52.4°F11.3°C 30% 9.8 mph E15.8 kmh E 13.2 mph21.2 kmh 30.21 in1023.0 mb 0.00 in0.0 mm 0.00 in/hr0.0 mm/hr 0.00 in0.0 mm
12:44 PM 87.5°F30.8°C 52.3°F11.3°C 30% 11.0 mph ENE17.7 kmh ENE 13.2 mph21.2 kmh 30.21 in1023.0 mb 0.00 in0.0 mm 0.00 in/hr0.0 mm/hr 0.00 in0.0 mm
12:49 PM 87.5°F30.8°C 52.3°F11.3°C 30% 9.3 mph E15.0 kmh E 11.6 mph18.7 kmh 30.20 in1022.7 mb 0.00 in0.0 mm 0.00 in/hr0.0 mm/hr 0.00 in0.0 mm
12:54 PM 87.5°F30.8°C 54.7°F12.6°C 33% 9.1 mph E14.6 kmh E 10.7 mph17.2 kmh 30.20 in1022.7 mb 0.00 in0.0 mm 0.00 in/hr0.0 mm/hr 0.00 in0.0 mm
01:00 PM 88.4°F31.3°C 53.0°F11.7°C 30% 8.4 mph ENE13.5 kmh ENE 10.7 mph17.2 kmh 30.20 in1022.7 mb 0.00 in0.0 mm 0.00 in/hr0.0 mm/hr 0.00 in0.0 mm
01:05 PM 88.9°F31.6°C 56.7°F13.7°C 34% 9.5 mph E15.3 kmh E 9.8 mph15.8 kmh 30.20 in1022.7 mb 0.00 in0.0 mm 0.00 in/hr0.0 mm/hr 0.00 in0.0 mm
01:10 PM 89.5°F31.9°C 57.2°F14.0°C 34% 6.9 mph ESE11.1 kmh ESE 10.3 mph16.6 kmh 30.20 in1022.7 mb 0.00 in0.0 mm 0.00 in/hr0.0 mm/hr 0.00 in0.0 mm
01:15 PM 89.8°F32.1°C 57.5°F14.2°C 34% 12.0 mph SE19.3 kmh SE 12.3 mph19.8 kmh 30.20 in1022.7 mb 0.00 in0.0 mm 0.00 in/hr0.0 mm/hr 0.00 in0.0 mm
01:20 PM 90.2°F32.3°C 57.9°F14.4°C 34% 8.7 mph E14.0 kmh E 12.3 mph19.8 kmh 30.20 in1022.7 mb 0.00 in0.0 mm 0.00 in/hr0.0 mm/hr 0.00 in0.0 mm
01:25 PM 90.4°F32.4°C 57.3°F14.1°C 33% 9.2 mph E14.8 kmh E 11.6 mph18.7 kmh 30.20 in1022.7 mb 0.00 in0.0 mm 0.00 in/hr0.0 mm/hr 0.00 in0.0 mm
01:30 PM 90.0°F32.2°C 55.3°F12.9°C 31% 6.3 mph NE10.1 kmh NE 11.4 mph18.3 kmh 30.20 in1022.7 mb 0.00 in0.0 mm 0.00 in/hr0.0 mm/hr 0.00 in0.0 mm
01:35 PM 90.7°F32.6°C 56.7°F13.7°C 32% 5.6 mph ESE9.0 kmh ESE 9.2 mph14.8 kmh 30.20 in1022.7 mb 0.00 in0.0 mm 0.00 in/hr0.0 mm/hr 0.00 in0.0 mm
01:40 PM 91.6°F33.1°C 58.3°F14.6°C 33% 6.7 mph S10.8 kmh S 9.2 mph14.8 kmh 30.19 in1022.4 mb 0.00 in0.0 mm 0.00 in/hr0.0 mm/hr 0.00 in0.0 mm
01:44 PM 92.3°F33.5°C 59.0°F15.0°C 33% 7.9 mph SSE12.7 kmh SSE 11.2 mph18.0 kmh 30.19 in1022.4 mb 0.00 in0.0 mm 0.00 in/hr0.0 mm/hr 0.00 in0.0 mm
01:49 PM 92.3°F33.5°C 59.0°F15.0°C 33% 7.4 mph S11.9 kmh S 11.4 mph18.3 kmh 30.19 in1022.4 mb 0.00 in0.0 mm 0.00 in/hr0.0 mm/hr 0.00 in0.0 mm
01:54 PM 92.9°F33.8°C 59.4°F15.2°C 33% 9.1 mph SE14.6 kmh SE 11.4 mph18.3 kmh 30.19 in1022.4 mb 0.00 in0.0 mm 0.00 in/hr0.0 mm/hr 0.00 in0.0 mm
02:00 PM 93.4°F34.1°C 59.9°F15.5°C 33% 7.3 mph E11.7 kmh E 10.5 mph16.9 kmh 30.19 in1022.4 mb 0.00 in0.0 mm 0.00 in/hr0.0 mm/hr 0.00 in0.0 mm
02:05 PM 92.7°F33.7°C 53.6°F12.0°C 27% 6.0 mph ENE9.7 kmh ENE 13.4 mph21.6 kmh 30.19 in1022.4 mb 0.00 in0.0 mm 0.00 in/hr0.0 mm/hr 0.00 in0.0 mm
02:10 PM 92.9°F33.8°C 58.6°F14.8°C 32% 3.8 mph SSE6.1 kmh SSE 13.4 mph21.6 kmh 30.18 in1022.0 mb 0.00 in0.0 mm 0.00 in/hr0.0 mm/hr 0.00 in0.0 mm
02:15 PM 93.2°F34.0°C 57.2°F14.0°C 30% 4.7 mph NNW7.6 kmh NNW 8.3 mph13.4 kmh 30.18 in1022.0 mb 0.00 in0.0 mm 0.00 in/hr0.0 mm/hr 0.00 in0.0 mm
02:20 PM 92.9°F33.8°C 57.0°F13.9°C 30% 3.3 mph S5.3 kmh S 6.7 mph10.8 kmh 30.18 in1022.0 mb 0.00 in0.0 mm 0.00 in/hr0.0 mm/hr 0.00 in0.0 mm
02:25 PM 93.6°F34.2°C 57.6°F14.2°C 30% 6.5 mph SW10.5 kmh SW 9.8 mph15.8 kmh 30.17 in1021.7 mb 0.00 in0.0 mm 0.00 in/hr0.0 mm/hr 0.00 in0.0 mm
02:30 PM 94.0°F34.4°C 57.9°F14.4°C 30% 5.6 mph SE9.0 kmh SE 9.8 mph15.8 kmh 30.18 in1022.0 mb 0.00 in0.0 mm 0.00 in/hr0.0 mm/hr 0.00 in0.0 mm
02:37 PM 93.8°F34.3°C 54.5°F12.5°C 27% 8.7 mph WSW14.0 kmh WSW 11.4 mph18.3 kmh 30.17 in1021.7 mb 0.00 in0.0 mm 0.00 in/hr0.0 mm/hr 0.00 in0.0 mm
02:42 PM 93.2°F34.0°C 56.2°F13.4°C 29% 4.1 mph E6.6 kmh E 11.4 mph18.3 kmh 30.17 in1021.7 mb 0.00 in0.0 mm 0.00 in/hr0.0 mm/hr 0.00 in0.0 mm
02:47 PM 93.2°F34.0°C 53.9°F12.2°C 27% 1.9 mph ENE3.1 kmh ENE 7.4 mph11.9 kmh 30.17 in1021.7 mb 0.00 in0.0 mm 0.00 in/hr0.0 mm/hr 0.00 in0.0 mm
02:52 PM 93.1°F33.9°C 51.6°F10.9°C 25% 3.9 mph N6.3 kmh N 5.4 mph8.7 kmh 30.17 in1021.7 mb 0.00 in0.0 mm 0.00 in/hr0.0 mm/hr 0.00 in0.0 mm
02:57 PM 91.8°F33.2°C 50.6°F10.3°C 25% 5.8 mph WSW9.3 kmh WSW 7.6 mph12.2 kmh 30.17 in1021.7 mb 0.00 in0.0 mm 0.00 in/hr0.0 mm/hr 0.00 in0.0 mm
03:02 PM 90.7°F32.6°C 49.7°F9.8°C 25% 8.4 mph WSW13.5 kmh WSW 9.2 mph14.8 kmh 30.17 in1021.7 mb 0.00 in0.0 mm 0.00 in/hr0.0 mm/hr 0.00 in0.0 mm
03:07 PM 88.4°F31.3°C 47.7°F8.7°C 25% 14.0 mph NW22.5 kmh NW 16.3 mph26.2 kmh 30.17 in1021.7 mb 0.00 in0.0 mm 0.00 in/hr0.0 mm/hr 0.00 in0.0 mm
03:12 PM 87.1°F30.6°C 47.7°F8.7°C 26% 12.5 mph WNW20.1 kmh WNW 16.3 mph26.2 kmh 30.17 in1021.7 mb 0.00 in0.0 mm 0.00 in/hr0.0 mm/hr 0.00 in0.0 mm
03:17 PM 86.6°F30.3°C 48.3°F9.1°C 27% 10.1 mph NW16.3 kmh NW 13.6 mph21.9 kmh 30.17 in1021.7 mb 0.00 in0.0 mm 0.00 in/hr0.0 mm/hr 0.00 in0.0 mm
03:22 PM 86.6°F30.3°C 47.3°F8.5°C 26% 9.3 mph NW15.0 kmh NW 13.6 mph21.9 kmh 30.17 in1021.7 mb 0.00 in0.0 mm 0.00 in/hr0.0 mm/hr 0.00 in0.0 mm
03:27 PM 86.8°F30.4°C 49.6°F9.8°C 28% 20.3 mph N32.7 kmh N 21.7 mph34.9 kmh 30.18 in1022.0 mb 0.00 in0.0 mm 0.00 in/hr0.0 mm/hr 0.00 in0.0 mm
03:32 PM 84.4°F29.1°C 49.7°F9.8°C 30% 26.5 mph NNE42.6 kmh NNE 33.3 mph53.6 kmh 30.17 in1021.7 mb 0.00 in0.0 mm 0.00 in/hr0.0 mm/hr 0.00 in0.0 mm
03:37 PM 81.9°F27.7°C 49.8°F9.9°C 33% 25.7 mph NNE41.4 kmh NNE 33.3 mph53.6 kmh 30.17 in1021.7 mb 0.00 in0.0 mm 0.00 in/hr0.0 mm/hr 0.00 in0.0 mm
03:42 PM 82.6°F28.1°C 48.9°F9.4°C 31% 19.8 mph NNE31.9 kmh NNE 28.9 mph46.5 kmh 30.18 in1022.0 mb 0.00 in0.0 mm 0.00 in/hr0.0 mm/hr 0.00 in0.0 mm
03:47 PM 83.2°F28.4°C 48.5°F9.2°C 30% 15.9 mph NE25.6 kmh NE 24.4 mph39.3 kmh 30.17 in1021.7 mb 0.00 in0.0 mm 0.00 in/hr0.0 mm/hr 0.00 in0.0 mm
03:52 PM 83.3°F28.5°C 49.5°F9.7°C 31% 15.9 mph ENE25.6 kmh ENE 21.9 mph35.2 kmh 30.17 in1021.7 mb 0.00 in0.0 mm 0.00 in/hr0.0 mm/hr 0.00 in0.0 mm
03:57 PM 82.6°F28.1°C 49.6°F9.8°C 32% 12.2 mph E19.6 kmh E 17.7 mph28.5 kmh 30.17 in1021.7 mb 0.00 in0.0 mm 0.00 in/hr0.0 mm/hr 0.00 in0.0 mm
04:02 PM 82.8°F28.2°C 49.8°F9.9°C 32% 11.9 mph ENE19.2 kmh ENE 17.7 mph28.5 kmh 30.17 in1021.7 mb 0.00 in0.0 mm 0.00 in/hr0.0 mm/hr 0.00 in0.0 mm
04:07 PM 82.8°F28.2°C 48.3°F9.1°C 30% 13.9 mph E22.4 kmh E 14.3 mph23.0 kmh 30.17 in1021.7 mb 0.00 in0.0 mm 0.00 in/hr0.0 mm/hr 0.00 in0.0 mm
04:12 PM 82.6°F28.1°C 48.9°F9.4°C 31% 8.3 mph E13.4 kmh E 14.3 mph23.0 kmh 30.17 in1021.7 mb 0.00 in0.0 mm 0.00 in/hr0.0 mm/hr 0.00 in0.0 mm
04:17 PM 83.0°F28.3°C 49.1°F9.5°C 31% 9.2 mph E14.8 kmh E 10.7 mph17.2 kmh 30.17 in1021.7 mb 0.00 in0.0 mm 0.00 in/hr0.0 mm/hr 0.00 in0.0 mm
04:22 PM 83.9°F28.8°C 49.1°F9.5°C 30% 9.0 mph E14.5 kmh E 11.9 mph19.2 kmh 30.17 in1021.7 mb 0.00 in0.0 mm 0.00 in/hr0.0 mm/hr 0.00 in0.0 mm
04:27 PM 84.6°F29.2°C 49.9°F9.9°C 30% 6.1 mph E9.8 kmh E 11.9 mph19.2 kmh 30.17 in1021.7 mb 0.00 in0.0 mm 0.00 in/hr0.0 mm/hr 0.00 in0.0 mm
04:32 PM 85.5°F29.7°C 51.4°F10.8°C 31% 7.3 mph E11.7 kmh E 8.9 mph14.3 kmh 30.17 in1021.7 mb 0.00 in0.0 mm 0.00 in/hr0.0 mm/hr 0.00 in0.0 mm
04:37 PM 86.6°F30.3°C 51.6°F10.9°C 30% 2.7 mph E4.3 kmh E 8.9 mph14.3 kmh 30.17 in1021.7 mb 0.00 in0.0 mm 0.00 in/hr0.0 mm/hr 0.00 in0.0 mm
04:42 PM 87.5°F30.8°C 52.3°F11.3°C 30% 6.1 mph E9.8 kmh E 8.5 mph13.7 kmh 30.16 in1021.3 mb 0.00 in0.0 mm 0.00 in/hr0.0 mm/hr 0.00 in0.0 mm
04:47 PM 88.0°F31.1°C 51.7°F10.9°C 29% 8.1 mph ENE13.0 kmh ENE 8.7 mph14.0 kmh 30.16 in1021.3 mb 0.00 in0.0 mm 0.00 in/hr0.0 mm/hr 0.00 in0.0 mm
04:52 PM 88.2°F31.2°C 53.7°F12.1°C 31% 8.4 mph SE13.5 kmh SE 8.7 mph14.0 kmh 30.16 in1021.3 mb 0.00 in0.0 mm 0.00 in/hr0.0 mm/hr 0.00 in0.0 mm
04:57 PM 88.0°F31.1°C 53.6°F12.0°C 31% 5.5 mph E8.9 kmh E 9.2 mph14.8 kmh 30.16 in1021.3 mb 0.00 in0.0 mm 0.00 in/hr0.0 mm/hr 0.00 in0.0 mm
05:03 PM 87.7°F30.9°C 53.2°F11.8°C 31% 6.3 mph SE10.1 kmh SE 9.2 mph14.8 kmh 30.16 in1021.3 mb 0.00 in0.0 mm 0.00 in/hr0.0 mm/hr 0.00 in0.0 mm
05:08 PM 87.3°F30.7°C 52.9°F11.6°C 31% 4.3 mph ESE6.9 kmh ESE 6.7 mph10.8 kmh 30.16 in1021.3 mb 0.00 in0.0 mm 0.00 in/hr0.0 mm/hr 0.00 in0.0 mm
05:13 PM 87.1°F30.6°C 52.8°F11.6°C 31% 4.7 mph E7.6 kmh E 5.6 mph9.0 kmh 30.15 in1021.0 mb 0.00 in0.0 mm 0.00 in/hr0.0 mm/hr 0.00 in0.0 mm
05:18 PM 87.1°F30.6°C 52.8°F11.6°C 31% 4.4 mph E7.1 kmh E 5.6 mph9.0 kmh 30.16 in1021.3 mb 0.00 in0.0 mm 0.00 in/hr0.0 mm/hr 0.00 in0.0 mm
05:22 PM 86.8°F30.4°C 52.5°F11.4°C 31% 2.9 mph E4.7 kmh E 5.1 mph8.2 kmh 30.16 in1021.3 mb 0.00 in0.0 mm 0.00 in/hr0.0 mm/hr 0.00 in0.0 mm
05:27 PM 86.8°F30.4°C 52.5°F11.4°C 31% 2.3 mph E3.7 kmh E 5.4 mph8.7 kmh 30.15 in1021.0 mb 0.00 in0.0 mm 0.00 in/hr0.0 mm/hr 0.00 in0.0 mm
05:32 PM 86.8°F30.4°C 52.5°F11.4°C 31% 3.0 mph E4.8 kmh E 5.4 mph8.7 kmh 30.15 in1021.0 mb 0.00 in0.0 mm 0.00 in/hr0.0 mm/hr 0.00 in0.0 mm
05:37 PM 86.8°F30.4°C 51.7°F10.9°C 30% 3.7 mph E6.0 kmh E 4.7 mph7.6 kmh 30.15 in1021.0 mb 0.00 in0.0 mm 0.00 in/hr0.0 mm/hr 0.00 in0.0 mm
05:42 PM 86.6°F30.3°C 52.4°F11.3°C 31% 1.1 mph SE1.8 kmh SE 4.5 mph7.2 kmh 30.15 in1021.0 mb 0.00 in0.0 mm 0.00 in/hr0.0 mm/hr 0.00 in0.0 mm
05:47 PM 86.9°F30.5°C 53.5°F11.9°C 32% 2.3 mph SE3.7 kmh SE 3.8 mph6.1 kmh 30.15 in1021.0 mb 0.00 in0.0 mm 0.00 in/hr0.0 mm/hr 0.00 in0.0 mm
05:52 PM 87.1°F30.6°C 53.6°F12.0°C 32% 2.3 mph SE3.7 kmh SE 3.8 mph6.1 kmh 30.15 in1021.0 mb 0.00 in0.0 mm 0.00 in/hr0.0 mm/hr 0.00 in0.0 mm
05:57 PM 87.1°F30.6°C 52.8°F11.6°C 31% 1.9 mph E3.1 kmh E 3.8 mph6.1 kmh 30.15 in1021.0 mb 0.00 in0.0 mm 0.00 in/hr0.0 mm/hr 0.00 in0.0 mm
06:03 PM 87.1°F30.6°C 52.0°F11.1°C 30% 1.8 mph ENE2.9 kmh ENE 4.0 mph6.4 kmh 30.15 in1021.0 mb 0.00 in0.0 mm 0.00 in/hr0.0 mm/hr 0.00 in0.0 mm
06:08 PM 86.8°F30.4°C 50.6°F10.3°C 29% 1.1 mph NNE1.8 kmh NNE 6.9 mph11.1 kmh 30.15 in1021.0 mb 0.00 in0.0 mm 0.00 in/hr0.0 mm/hr 0.00 in0.0 mm
06:13 PM 86.9°F30.5°C 49.7°F9.8°C 28% 2.0 mph E3.2 kmh E 6.9 mph11.1 kmh 30.14 in1020.7 mb 0.00 in0.0 mm 0.00 in/hr0.0 mm/hr 0.00 in0.0 mm
06:18 PM 87.3°F30.7°C 50.0°F10.0°C 28% 1.6 mph ESE2.6 kmh ESE 2.9 mph4.7 kmh 30.15 in1021.0 mb 0.00 in0.0 mm 0.00 in/hr0.0 mm/hr 0.00 in0.0 mm
06:23 PM 87.5°F30.8°C 51.2°F10.7°C 29% 2.2 mph NE3.5 kmh NE 2.9 mph4.7 kmh 30.14 in1020.7 mb 0.00 in0.0 mm 0.00 in/hr0.0 mm/hr 0.00 in0.0 mm
06:28 PM 87.5°F30.8°C 51.2°F10.7°C 29% 1.5 mph SE2.4 kmh SE 2.9 mph4.7 kmh 30.14 in1020.7 mb 0.00 in0.0 mm 0.00 in/hr0.0 mm/hr 0.00 in0.0 mm
06:33 PM 87.5°F30.8°C 51.2°F10.7°C 29% 1.1 mph S1.8 kmh S 2.9 mph4.7 kmh 30.14 in1020.7 mb 0.00 in0.0 mm 0.00 in/hr0.0 mm/hr 0.00 in0.0 mm
06:38 PM 87.1°F30.6°C 51.0°F10.6°C 29% 0.4 mph SW0.6 kmh SW 1.3 mph2.1 kmh 30.15 in1021.0 mb 0.00 in0.0 mm 0.00 in/hr0.0 mm/hr 0.00 in0.0 mm
06:42 PM 86.9°F30.5°C 49.7°F9.8°C 28% 0.8 mph NE1.3 kmh NE 1.3 mph2.1 kmh 30.15 in1021.0 mb 0.00 in0.0 mm 0.00 in/hr0.0 mm/hr 0.00 in0.0 mm
06:47 PM 86.8°F30.4°C 49.6°F9.8°C 28% 1.8 mph N2.9 kmh N 1.8 mph2.9 kmh 30.15 in1021.0 mb 0.00 in0.0 mm 0.00 in/hr0.0 mm/hr 0.00 in0.0 mm
06:52 PM 85.5°F29.7°C 48.5°F9.2°C 28% 4.5 mph ENE7.2 kmh ENE 11.4 mph18.3 kmh 30.15 in1021.0 mb 0.00 in0.0 mm 0.00 in/hr0.0 mm/hr 0.00 in0.0 mm
06:57 PM 84.8°F29.3°C 50.0°F10.0°C 30% 2.8 mph E4.5 kmh E 11.4 mph18.3 kmh 30.15 in1021.0 mb 0.00 in0.0 mm 0.00 in/hr0.0 mm/hr 0.00 in0.0 mm
07:03 PM 84.6°F29.2°C 49.9°F9.9°C 30% 2.5 mph E4.0 kmh E 4.3 mph6.9 kmh 30.15 in1021.0 mb 0.00 in0.0 mm 0.00 in/hr0.0 mm/hr 0.00 in0.0 mm
07:08 PM 84.2°F29.0°C 50.3°F10.2°C 31% 2.3 mph ESE3.7 kmh ESE 4.0 mph6.4 kmh 30.15 in1021.0 mb 0.00 in0.0 mm 0.00 in/hr0.0 mm/hr 0.00 in0.0 mm
07:13 PM 83.9°F28.8°C 50.8°F10.4°C 32% 2.4 mph SE3.9 kmh SE 4.0 mph6.4 kmh 30.15 in1021.0 mb 0.00 in0.0 mm 0.00 in/hr0.0 mm/hr 0.00 in0.0 mm
07:18 PM 83.5°F28.6°C 50.4°F10.2°C 32% 3.6 mph SE5.8 kmh SE 3.8 mph6.1 kmh 30.15 in1021.0 mb 0.00 in0.0 mm 0.00 in/hr0.0 mm/hr 0.00 in0.0 mm
07:23 PM 83.2°F28.4°C 50.1°F10.1°C 32% 2.3 mph SE3.7 kmh SE 3.8 mph6.1 kmh 30.15 in1021.0 mb 0.00 in0.0 mm 0.00 in/hr0.0 mm/hr 0.00 in0.0 mm
07:28 PM 82.6°F28.1°C 49.6°F9.8°C 32% 2.7 mph SE4.3 kmh SE 3.4 mph5.5 kmh 30.15 in1021.0 mb 0.00 in0.0 mm 0.00 in/hr0.0 mm/hr 0.00 in0.0 mm
07:33 PM 82.1°F27.8°C 50.0°F10.0°C 33% 2.0 mph SE3.2 kmh SE 3.4 mph5.5 kmh 30.15 in1021.0 mb 0.00 in0.0 mm 0.00 in/hr0.0 mm/hr 0.00 in0.0 mm
07:38 PM 81.5°F27.5°C 49.5°F9.7°C 33% 1.0 mph SE1.6 kmh SE 2.5 mph4.0 kmh 30.15 in1021.0 mb 0.00 in0.0 mm 0.00 in/hr0.0 mm/hr 0.00 in0.0 mm
07:43 PM 81.4°F27.4°C 49.3°F9.6°C 33% 0.8 mph ESE1.3 kmh ESE 1.6 mph2.6 kmh 30.15 in1021.0 mb 0.00 in0.0 mm 0.00 in/hr0.0 mm/hr 0.00 in0.0 mm
07:48 PM 81.0°F27.2°C 49.1°F9.5°C 33% 1.2 mph ESE1.9 kmh ESE 1.3 mph2.1 kmh 30.15 in1021.0 mb 0.00 in0.0 mm 0.00 in/hr0.0 mm/hr 0.00 in0.0 mm
07:53 PM 80.6°F27.0°C 49.5°F9.7°C 34% 2.3 mph E3.7 kmh E 2.5 mph4.0 kmh 30.15 in1021.0 mb 0.00 in0.0 mm 0.00 in/hr0.0 mm/hr 0.00 in0.0 mm
07:58 PM 80.1°F26.7°C 49.1°F9.5°C 34% 2.3 mph E3.7 kmh E 2.5 mph4.0 kmh 30.15 in1021.0 mb 0.00 in0.0 mm 0.00 in/hr0.0 mm/hr 0.00 in0.0 mm
08:03 PM 79.2°F26.2°C 49.1°F9.5°C 35% 2.8 mph E4.5 kmh E 2.9 mph4.7 kmh 30.15 in1021.0 mb 0.00 in0.0 mm 0.00 in/hr0.0 mm/hr 0.00 in0.0 mm
08:08 PM 78.3°F25.7°C 49.0°F9.4°C 36% 2.5 mph ENE4.0 kmh ENE 3.1 mph5.0 kmh 30.16 in1021.3 mb 0.00 in0.0 mm 0.00 in/hr0.0 mm/hr 0.00 in0.0 mm
08:13 PM 77.6°F25.3°C 49.1°F9.5°C 37% 2.6 mph 4.2 kmh 3.1 mph5.0 kmh 30.16 in1021.3 mb 0.00 in0.0 mm 0.00 in/hr0.0 mm/hr 0.00 in0.0 mm
08:18 PM 76.7°F24.8°C 49.9°F9.9°C 39% 9.4 mph N15.1 kmh N 11.0 mph17.7 kmh 30.16 in1021.3 mb 0.00 in0.0 mm 0.00 in/hr0.0 mm/hr 0.00 in0.0 mm
08:23 PM 75.8°F24.3°C 50.4°F10.2°C 41% 7.3 mph N11.7 kmh N 11.6 mph18.7 kmh 30.17 in1021.7 mb 0.00 in0.0 mm 0.00 in/hr0.0 mm/hr 0.00 in0.0 mm
08:28 PM 75.4°F24.1°C 51.9°F11.1°C 44% 5.8 mph N9.3 kmh N 11.6 mph18.7 kmh 30.17 in1021.7 mb 0.00 in0.0 mm 0.00 in/hr0.0 mm/hr 0.00 in0.0 mm
08:33 PM 75.4°F24.1°C 50.1°F10.1°C 41% 7.7 mph NNE12.4 kmh NNE 8.5 mph13.7 kmh 30.17 in1021.7 mb 0.00 in0.0 mm 0.00 in/hr0.0 mm/hr 0.00 in0.0 mm
08:38 PM 75.4°F24.1°C 48.7°F9.3°C 39% 7.3 mph NE11.7 kmh NE 8.5 mph13.7 kmh 30.17 in1021.7 mb 0.00 in0.0 mm 0.00 in/hr0.0 mm/hr 0.00 in0.0 mm
08:43 PM 75.2°F24.0°C 49.3°F9.6°C 40% 5.9 mph NNE9.5 kmh NNE 8.1 mph13.0 kmh 30.17 in1021.7 mb 0.00 in0.0 mm 0.00 in/hr0.0 mm/hr 0.00 in0.0 mm
08:48 PM 74.9°F23.8°C 49.0°F9.4°C 40% 6.0 mph 9.7 kmh 7.8 mph12.6 kmh 30.17 in1021.7 mb 0.00 in0.0 mm 0.00 in/hr0.0 mm/hr 0.00 in0.0 mm
08:53 PM 74.2°F23.4°C 49.6°F9.8°C 42% 5.8 mph 9.3 kmh 6.3 mph10.1 kmh 30.17 in1021.7 mb 0.00 in0.0 mm 0.00 in/hr0.0 mm/hr 0.00 in0.0 mm
08:58 PM 73.8°F23.2°C 49.2°F9.6°C 42% 4.8 mph N7.7 kmh N 6.3 mph10.1 kmh 30.18 in1022.0 mb 0.00 in0.0 mm 0.00 in/hr0.0 mm/hr 0.00 in0.0 mm
09:03 PM 73.6°F23.1°C 49.1°F9.5°C 42% 3.0 mph NNW4.8 kmh NNW 5.8 mph9.3 kmh 30.18 in1022.0 mb 0.00 in0.0 mm 0.00 in/hr0.0 mm/hr 0.00 in0.0 mm
09:08 PM 73.4°F23.0°C 49.5°F9.7°C 43% 4.9 mph NNW7.9 kmh NNW 5.4 mph8.7 kmh 30.19 in1022.4 mb 0.00 in0.0 mm 0.00 in/hr0.0 mm/hr 0.00 in0.0 mm
09:13 PM 73.1°F22.8°C 49.1°F9.5°C 43% 3.4 mph 5.5 kmh 5.4 mph8.7 kmh 30.19 in1022.4 mb 0.00 in0.0 mm 0.00 in/hr0.0 mm/hr 0.00 in0.0 mm
09:18 PM 72.7°F22.6°C 48.9°F9.4°C 43% 3.8 mph NE6.1 kmh NE 4.5 mph7.2 kmh 30.18 in1022.0 mb 0.00 in0.0 mm 0.00 in/hr0.0 mm/hr 0.00 in0.0 mm
09:23 PM 72.4°F22.4°C 49.2°F9.6°C 44% 4.6 mph N7.4 kmh N 5.6 mph9.0 kmh 30.19 in1022.4 mb 0.00 in0.0 mm 0.00 in/hr0.0 mm/hr 0.00 in0.0 mm
09:28 PM 72.2°F22.3°C 49.0°F9.4°C 44% 2.5 mph N4.0 kmh N 5.6 mph9.0 kmh 30.19 in1022.4 mb 0.00 in0.0 mm 0.00 in/hr0.0 mm/hr 0.00 in0.0 mm
09:33 PM 72.0°F22.2°C 49.4°F9.7°C 45% 2.3 mph N3.7 kmh N 4.3 mph6.9 kmh 30.19 in1022.4 mb 0.00 in0.0 mm 0.00 in/hr0.0 mm/hr 0.00 in0.0 mm
09:38 PM 71.8°F22.1°C 48.6°F9.2°C 44% 0.9 mph 1.4 kmh 4.0 mph6.4 kmh 30.19 in1022.4 mb 0.00 in0.0 mm 0.00 in/hr0.0 mm/hr 0.00 in0.0 mm
09:43 PM 71.6°F22.0°C 49.1°F9.5°C 45% 0.4 mph 0.6 kmh 3.6 mph5.8 kmh 30.19 in1022.4 mb 0.00 in0.0 mm 0.00 in/hr0.0 mm/hr 0.00 in0.0 mm
09:48 PM 71.5°F21.9°C 48.9°F9.4°C 45% Calm Calm 0.7 mph1.1 kmh 30.20 in1022.7 mb 0.00 in0.0 mm 0.00 in/hr0.0 mm/hr 0.00 in0.0 mm
09:53 PM 70.9°F21.6°C 49.0°F9.4°C 46% 3.0 mph E4.8 kmh E 3.4 mph5.5 kmh 30.20 in1022.7 mb 0.00 in0.0 mm 0.00 in/hr0.0 mm/hr 0.00 in0.0 mm
09:58 PM 70.2°F21.2°C 48.3°F9.1°C 46% 6.7 mph ENE10.8 kmh ENE 7.4 mph11.9 kmh 30.20 in1022.7 mb 0.00 in0.0 mm 0.00 in/hr0.0 mm/hr 0.00 in0.0 mm
10:04 PM 69.8°F21.0°C 49.2°F9.6°C 48% 4.4 mph NE7.1 kmh NE 8.3 mph13.4 kmh 30.21 in1023.0 mb 0.00 in0.0 mm 0.00 in/hr0.0 mm/hr 0.00 in0.0 mm
10:09 PM 69.5°F20.8°C 48.9°F9.4°C 48% 4.1 mph NE6.6 kmh NE 8.3 mph13.4 kmh 30.20 in1022.7 mb 0.00 in0.0 mm 0.00 in/hr0.0 mm/hr 0.00 in0.0 mm
10:14 PM 69.5°F20.8°C 48.9°F9.4°C 48% 1.5 mph NNE2.4 kmh NNE 6.5 mph10.5 kmh 30.20 in1022.7 mb 0.00 in0.0 mm 0.00 in/hr0.0 mm/hr 0.00 in0.0 mm
10:19 PM 69.5°F20.8°C 48.9°F9.4°C 48% 3.7 mph NNE6.0 kmh NNE 4.9 mph7.9 kmh 30.20 in1022.7 mb 0.00 in0.0 mm 0.00 in/hr0.0 mm/hr 0.00 in0.0 mm
11:16 PM 70.4°F21.3°C 49.2°F9.6°C 47% 5.7 mph NNW9.2 kmh NNW 8.5 mph13.7 kmh 30.20 in1022.7 mb 0.00 in0.0 mm 0.00 in/hr0.0 mm/hr 0.00 in0.0 mm
11:24 PM 70.2°F21.2°C 49.0°F9.4°C 47% 7.5 mph NNW12.1 kmh NNW 8.7 mph14.0 kmh 30.20 in1022.7 mb 0.00 in0.0 mm 0.00 in/hr0.0 mm/hr 0.00 in0.0 mm
11:28 PM 69.5°F20.8°C 48.9°F9.4°C 48% 3.3 mph 5.3 kmh 4.9 mph7.9 kmh 30.20 in1022.7 mb 0.00 in0.0 mm 0.00 in/hr0.0 mm/hr 0.00 in0.0 mm
11:32 PM 70.6°F21.4°C 48.7°F9.3°C 46% 5.3 mph NW8.5 kmh NW 7.8 mph12.6 kmh 30.20 in1022.7 mb 0.00 in0.0 mm 0.00 in/hr0.0 mm/hr 0.00 in0.0 mm
11:37 PM 70.9°F21.6°C 48.4°F9.1°C 45% 6.3 mph N10.1 kmh N 10.7 mph17.2 kmh 30.20 in1022.7 mb 0.00 in0.0 mm 0.00 in/hr0.0 mm/hr 0.00 in0.0 mm
11:42 PM 71.1°F21.7°C 48.6°F9.2°C 45% 6.6 mph 10.6 kmh 10.7 mph17.2 kmh 30.20 in1022.7 mb 0.00 in0.0 mm 0.00 in/hr0.0 mm/hr 0.00 in0.0 mm
11:47 PM 71.1°F21.7°C 48.0°F8.9°C 44% 7.1 mph N11.4 kmh N 8.5 mph13.7 kmh 30.20 in1022.7 mb 0.00 in0.0 mm 0.00 in/hr0.0 mm/hr 0.00 in0.0 mm
11:52 PM 71.1°F21.7°C 48.0°F8.9°C 44% 4.6 mph NNW7.4 kmh NNW 7.8 mph12.6 kmh 30.20 in1022.7 mb 0.00 in0.0 mm 0.00 in/hr0.0 mm/hr 0.00 in0.0 mm
11:57 PM 70.9°F21.6°C 47.8°F8.8°C 44% 4.1 mph N6.6 kmh N 7.6 mph12.2 kmh 30.20 in1022.7 mb 0.00 in0.0 mm 0.00 in/hr0.0 mm/hr 0.00 in0.0 mm